Time;durP1;ratioP1;P1;durP2;ratioP2;P2;SDS_P1;SDS_P2;PMS_P1;PMS_P2;Temp;Humidity;BMP_temperature;BMP_pressure;BME280_temperature;BME280_humidity;BME280_pressure;Samples;Min_cycle;Max_cycle;Signal;HPM_P1;HPM_P2
2023/08/05 00:02:34;;;;;;;;;13.00;10.33;;;;;20.22;86.26;101142.16;6251734;22;44894;-82
2023/08/05 00:05:01;;;;;;;;;11.33;8.00;;;;;19.89;86.78;101145.47;6225090;22;44682;-80
2023/08/05 00:07:26;;;;;;;;;4.33;4.33;;;;;19.85;86.88;101141.03;6246316;22;45429;-80
2023/08/05 00:09:52;;;;;;;;;7.33;7.33;;;;;19.86;87.30;101142.84;6247397;22;44812;-80
2023/08/05 00:12:17;;;;;;;;;8.00;7.67;;;;;19.86;87.38;101141.97;6248978;22;44655;-80
2023/08/05 00:14:44;;;;;;;;;7.33;7.33;;;;;19.99;86.87;101138.97;6248579;22;45343;-80
2023/08/05 00:17:15;;;;;;;;;9.67;9.67;;;;;20.05;87.76;101145.19;6246813;22;46485;-81
2023/08/05 00:19:42;;;;;;;;;5.67;5.33;;;;;19.95;87.53;101139.94;6220161;22;45671;-81
2023/08/05 00:22:10;;;;;;;;;9.00;9.00;;;;;20.01;87.40;101127.28;6248190;22;44803;-81
2023/08/05 00:24:39;;;;;;;;;8.00;8.00;;;;;19.84;86.77;101133.00;6222199;22;45321;-80
2023/08/05 00:27:05;;;;;;;;;7.33;7.33;;;;;19.84;87.49;101127.59;6249976;22;45097;-80
2023/08/05 00:29:31;;;;;;;;;8.00;7.67;;;;;19.88;87.99;101127.50;6221437;22;45691;-80
2023/08/05 00:31:56;;;;;;;;;8.00;8.00;;;;;19.74;87.42;101133.16;6223172;22;45280;-80
2023/08/05 00:34:24;;;;;;;;;16.33;16.33;;;;;19.81;87.37;101131.22;6223642;22;45480;-80
2023/08/05 00:36:50;;;;;;;;;17.67;16.67;;;;;19.72;87.85;101120.59;6250716;22;45406;-80
2023/08/05 00:39:16;;;;;;;;;15.67;14.33;;;;;19.91;87.74;101107.66;6249306;22;45421;-80
2023/08/05 00:41:42;;;;;;;;;12.33;12.33;;;;;19.76;87.42;101108.84;6220219;22;45373;-81
2023/08/05 00:44:07;;;;;;;;;11.67;8.67;;;;;19.72;87.62;101099.91;6269056;22;44868;-81
2023/08/05 00:46:32;;;;;;;;;10.33;10.33;;;;;19.69;88.31;101101.72;6269331;22;44981;-81
2023/08/05 00:48:58;;;;;;;;;8.00;8.00;;;;;19.68;88.31;101094.56;6241472;22;44815;-82
2023/08/05 00:51:24;;;;;;;;;7.50;7.50;;;;;19.68;88.61;101092.75;6241886;22;44712;-82
2023/08/05 00:53:50;;;;;;;;;7.33;6.00;;;;;19.85;88.98;101099.66;6269295;22;44769;-82
2023/08/05 00:56:16;;;;;;;;;9.00;8.00;;;;;19.62;89.23;101103.66;6268176;22;45009;-82
2023/08/05 00:58:48;;;;;;;;;6.33;6.33;;;;;19.83;89.27;101115.00;6268506;22;44860;-80
2023/08/05 01:01:13;;;;;;;;;7.67;7.67;;;;;19.53;89.36;101117.28;6272705;22;44869;-80
2023/08/05 01:04:35;;;;;;;;;8.00;8.00;;;;;19.84;89.06;101124.91;6300355;22;44838;-80
2023/08/05 01:07:01;;;;;;;;;8.00;7.00;;;;;19.58;88.87;101131.59;6273024;22;47555;-81
2023/08/05 01:09:27;;;;;;;;;7.00;5.33;;;;;19.55;88.99;101115.44;6272998;22;44905;-82
2023/08/05 01:11:54;;;;;;;;;9.00;8.67;;;;;19.71;89.25;101118.81;6273361;22;44746;-83
2023/08/05 01:14:19;;;;;;;;;8.67;7.67;;;;;19.55;88.68;101119.06;6273007;22;44908;-82
2023/08/05 01:16:44;;;;;;;;;7.00;7.00;;;;;19.52;88.36;101116.41;6273128;22;46796;-82
2023/08/05 01:19:23;;;;;;;;;7.67;6.33;;;;;19.75;88.54;101118.75;6301113;22;44594;-81
2023/08/05 01:22:18;;;;;;;;;5.00;5.00;;;;;19.82;88.70;101105.13;6299645;22;45103;-81
2023/08/05 01:24:59;;;;;;;;;7.00;5.67;;;;;19.74;89.14;101098.06;6272939;22;44813;-82
2023/08/05 01:27:24;;;;;;;;;5.00;5.00;;;;;19.49;89.30;101096.66;6272925;22;47428;-81
2023/08/05 01:29:50;;;;;;;;;5.67;5.33;;;;;19.46;89.65;101094.03;6271417;22;44720;-83
2023/08/05 01:32:18;;;;;;;;;8.00;6.67;;;;;19.53;90.05;101101.09;6272419;22;44709;-82
2023/08/05 01:34:43;;;;;;;;;5.67;5.67;;;;;19.43;89.90;101099.47;6299886;22;45161;-82
2023/08/05 01:37:09;;;;;;;;;7.33;5.67;;;;;19.43;89.43;101102.16;6264572;22;46945;-81
2023/08/05 01:39:35;;;;;;;;;5.50;4.00;;;;;19.55;89.98;101099.25;6249870;22;44878;-81
2023/08/05 01:42:35;;;;;;;;;6.00;6.00;;;;;19.70;89.35;101096.31;6277613;22;44786;-80
2023/08/05 01:45:00;;;;;;;;;6.25;6.25;;;;;19.37;88.92;101092.41;6249248;22;44947;-80
2023/08/05 01:47:25;;;;;;;;;11.67;8.00;;;;;19.37;88.28;101092.41;6278017;22;44977;-80
2023/08/05 01:49:51;;;;;;;;;5.00;5.00;;;;;19.41;88.74;101109.41;6277641;22;44771;-81
2023/08/05 01:52:16;;;;;;;;;5.33;5.33;;;;;19.44;88.68;101130.94;6251749;22;45474;-80
2023/08/05 01:54:42;;;;;;;;;6.00;5.25;;;;;19.48;88.62;101138.06;6282645;22;45212;-82
2023/08/05 01:57:07;;;;;;;;;8.25;6.00;;;;;19.43;88.26;101146.25;6272913;22;47303;-82
2023/08/05 01:59:32;;;;;;;;;5.00;4.75;;;;;19.47;88.53;101153.38;6283453;22;44824;-82
2023/08/05 02:01:58;;;;;;;;;6.00;6.00;;;;;19.46;87.46;101146.19;6253308;22;45364;-83
2023/08/05 02:04:24;;;;;;;;;6.67;6.67;;;;;19.47;88.43;101142.56;6253652;22;45319;-83
2023/08/05 02:06:51;;;;;;;;;5.67;5.67;;;;;19.64;88.65;101122.50;6224513;22;46704;-82
2023/08/05 02:09:16;;;;;;;;;6.67;6.67;;;;;19.54;88.70;101119.06;6254400;22;44756;-83
2023/08/05 02:11:42;;;;;;;;;5.00;5.00;;;;;19.67;88.35;101107.13;6251690;22;45103;-83
2023/08/05 02:14:10;;;;;;;;;7.00;7.00;;;;;19.66;88.09;101094.56;6223110;22;44842;-82
2023/08/05 02:16:37;;;;;;;;;8.00;7.67;;;;;19.71;87.99;101078.31;6224460;22;46741;-83
2023/08/05 02:19:03;;;;;;;;;5.00;5.00;;;;;19.78;87.98;101082.72;6224581;22;44942;-83
2023/08/05 02:21:29;;;;;;;;;5.67;5.67;;;;;19.82;87.74;101067.34;6254561;22;44865;-83
2023/08/05 02:23:54;;;;;;;;;5.00;5.00;;;;;19.82;87.35;101053.88;6226728;22;44894;-82
2023/08/05 02:26:20;;;;;;;;;7.67;6.00;;;;;19.86;87.80;101055.59;6254080;22;44953;-82
2023/08/05 02:28:46;;;;;;;;;7.00;6.00;;;;;19.86;87.65;101047.47;6226895;22;45420;-83
2023/08/05 02:31:12;;;;;;;;;5.33;5.33;;;;;19.89;87.83;101042.00;6226433;22;44970;-83
2023/08/05 02:33:41;;;;;;;;;3.67;3.67;;;;;19.99;88.10;101039.09;6255816;22;44817;-84
2023/08/05 02:36:08;;;;;;;;;6.00;6.00;;;;;19.88;87.57;101038.44;6253119;22;46785;-83
2023/08/05 02:38:33;;;;;;;;;4.00;4.00;;;;;19.85;87.31;101022.28;6253588;22;44810;-83
2023/08/05 02:40:59;;;;;;;;;5.00;5.00;;;;;19.80;87.38;101017.91;6253767;22;44705;-83
2023/08/05 02:43:25;;;;;;;;;6.00;6.00;;;;;19.75;87.57;101020.69;6226647;22;44860;-83
2023/08/05 02:45:57;;;;;;;;;4.00;4.00;;;;;19.85;87.82;101024.09;6236469;22;47168;-82
2023/08/05 02:48:26;;;;;;;;;5.00;5.00;;;;;19.78;88.41;101016.13;6268689;22;44856;-83
2023/08/05 02:50:53;;;;;;;;;6.00;5.00;;;;;19.67;88.47;101012.69;6232027;22;44743;-83
2023/08/05 02:53:19;;;;;;;;;7.67;7.67;;;;;19.62;88.48;101002.94;6225100;22;45413;-81
2023/08/05 02:55:48;;;;;;;;;7.67;6.67;;;;;19.63;88.54;101013.66;6244765;22;46683;-81
2023/08/05 02:58:15;;;;;;;;;6.33;6.00;;;;;19.76;88.11;101014.38;6246284;22;45387;-81
2023/08/05 03:00:46;;;;;;;;;8.00;6.00;;;;;19.92;88.14;101009.56;6234954;22;45774;-81
2023/08/05 03:03:12;;;;;;;;;7.00;7.00;;;;;19.64;87.67;101009.19;6245077;22;44984;-80
2023/08/05 03:05:38;;;;;;;;;6.00;6.00;;;;;19.64;87.79;101019.97;6245761;22;46969;-81
2023/08/05 03:08:03;;;;;;;;;7.33;6.00;;;;;19.69;87.87;101013.59;6218430;22;45325;-82
2023/08/05 03:10:29;;;;;;;;;5.33;4.00;;;;;19.65;87.81;101009.13;6218690;22;45911;-82
2023/08/05 03:12:54;;;;;;;;;6.00;6.00;;;;;19.67;87.80;101010.00;6246097;22;45438;-82
2023/08/05 03:15:19;;;;;;;;;5.67;5.67;;;;;19.69;87.38;101013.59;6218107;22;47041;-82
2023/08/05 03:17:45;;;;;;;;;5.00;5.00;;;;;19.66;87.86;101013.63;6217715;22;45375;-82
2023/08/05 03:20:25;;;;;;;;;4.33;4.33;;;;;19.94;87.25;101018.53;6218182;22;45339;-82
2023/08/05 03:22:55;;;;;;;;;5.33;5.33;;;;;19.76;86.72;100998.19;6242982;22;45379;-81
2023/08/05 03:25:22;;;;;;;;;5.00;5.00;;;;;19.64;87.37;101009.19;6219592;22;46954;-81
2023/08/05 03:27:51;;;;;;;;;6.67;5.33;;;;;19.78;87.49;101001.75;6242956;22;45412;-82
2023/08/05 03:30:17;;;;;;;;;6.33;6.33;;;;;19.63;87.53;101010.97;6218613;22;44772;-82
2023/08/05 03:32:43;;;;;;;;;7.00;5.33;;;;;19.62;87.43;101009.22;6223076;22;45619;-83
2023/08/05 03:35:09;;;;;;;;;7.33;5.67;;;;;19.57;87.36;101008.38;6240868;22;46945;-82
2023/08/05 03:37:34;;;;;;;;;6.33;4.67;;;;;19.66;86.69;101010.03;6268284;22;44792;-82
2023/08/05 03:39:59;;;;;;;;;5.33;5.33;;;;;19.64;87.21;101001.97;6267754;22;44716;-83
2023/08/05 03:42:25;;;;;;;;;4.67;4.67;;;;;19.72;86.74;101013.53;6258077;22;44870;-82
2023/08/05 03:44:51;;;;;;;;;4.25;4.25;;;;;19.46;87.11;100961.88;6268832;22;45187;-83
2023/08/05 03:47:17;;;;;;;;;8.67;6.00;;;;;19.66;87.13;100986.66;6232604;22;44697;-84
2023/08/05 03:49:42;;;;;;;;;4.00;4.00;;;;;19.59;86.48;100974.19;6187529;22;44782;-83
2023/08/05 03:52:24;;;;;;;;;5.25;5.00;;;;;19.94;86.81;100988.84;6269111;22;44698;-83
2023/08/05 03:54:49;;;;;;;;;4.75;4.75;;;;;19.74;86.79;100984.72;6258500;22;45025;-81
2023/08/05 03:57:14;;;;;;;;;5.25;4.25;;;;;19.65;86.76;100952.47;6248279;22;44813;-82
2023/08/05 03:59:40;;;;;;;;;4.00;4.00;;;;;19.78;86.23;100953.16;6249937;22;45272;-82
2023/08/05 04:02:06;;;;;;;;;7.33;6.00;;;;;19.76;86.23;100945.09;6220246;22;44887;-80
2023/08/05 04:04:32;;;;;;;;;4.67;4.33;;;;;19.79;86.52;100941.44;6221477;22;45282;-80
2023/08/05 04:06:57;;;;;;;;;3.67;3.33;;;;;19.74;85.47;100933.44;6223220;22;44706;-80
2023/08/05 04:09:24;;;;;;;;;6.33;5.33;;;;;19.74;86.38;100930.75;6219966;22;45023;-80
2023/08/05 04:11:49;;;;;;;;;3.50;3.50;;;;;19.71;86.11;100908.31;6196156;22;45474;-80
2023/08/05 04:14:20;;;;;;;;;4.00;3.00;;;;;19.94;86.26;100902.44;6220310;22;46953;-81
2023/08/05 04:16:51;;;;;;;;;4.00;4.00;;;;;19.81;86.43;100896.41;6221360;22;45420;-80
2023/08/05 04:19:18;;;;;;;;;6.75;6.75;;;;;19.66;86.16;100894.91;6219846;22;44822;-81
2023/08/05 04:21:47;;;;;;;;;6.33;6.33;;;;;19.73;86.29;100904.69;6222477;22;45213;-81
2023/08/05 04:24:18;;;;;;;;;3.67;3.67;;;;;19.97;86.01;100915.88;6224279;22;46015;-80
2023/08/05 04:26:43;;;;;;;;;4.00;4.00;;;;;19.69;85.80;100916.44;6221179;22;45315;-81
2023/08/05 04:29:10;;;;;;;;;4.00;4.00;;;;;19.70;84.58;100922.72;6249687;22;44856;-81
2023/08/05 04:31:37;;;;;;;;;2.75;2.75;;;;;19.63;85.16;100919.25;6221291;22;45515;-80
2023/08/05 04:34:03;;;;;;;;;6.00;4.67;;;;;19.67;85.26;100929.03;6221921;22;47140;-80
2023/08/05 04:36:28;;;;;;;;;6.00;5.33;;;;;19.74;85.16;100930.75;6247871;22;44764;-80
2023/08/05 04:38:54;;;;;;;;;4.33;4.33;;;;;19.75;84.82;100937.94;6264008;22;44734;-82
2023/08/05 04:41:19;;;;;;;;;4.00;4.00;;;;;19.80;84.73;100929.72;6265226;22;44759;-80
2023/08/05 04:43:44;;;;;;;;;4.00;4.00;;;;;19.72;83.90;100935.28;6248094;22;46799;-81
2023/08/05 04:46:11;;;;;;;;;4.50;4.50;;;;;19.70;83.81;100929.00;6222378;22;44775;-81
2023/08/05 04:48:36;;;;;;;;;5.50;5.50;;;;;19.72;84.51;100932.59;6226700;22;44788;-83
2023/08/05 04:51:02;;;;;;;;;3.00;3.00;;;;;19.75;84.15;100923.53;6228565;22;44836;-83
2023/08/05 04:53:28;;;;;;;;;6.00;6.00;;;;;19.79;83.85;100933.34;6227655;22;47111;-83
2023/08/05 04:55:55;;;;;;;;;3.67;3.67;;;;;19.78;83.51;100926.19;6229213;22;45147;-81
2023/08/05 04:58:20;;;;;;;;;4.67;4.67;;;;;19.73;83.78;100918.19;6226552;22;44809;-82
2023/08/05 05:00:47;;;;;;;;;4.00;4.00;;;;;19.97;84.55;100918.56;6226062;22;45064;-82
2023/08/05 05:03:12;;;;;;;;;4.50;4.50;;;;;19.80;84.22;100909.97;6226751;22;46901;-83
2023/08/05 05:05:41;;;;;;;;;6.00;5.00;;;;;19.80;84.52;100904.56;6235744;22;44792;-82
2023/08/05 05:08:07;;;;;;;;;7.00;4.75;;;;;19.75;84.29;100900.16;6242108;22;45088;-82
2023/08/05 05:10:32;;;;;;;;;4.00;4.00;;;;;19.83;84.12;100901.78;6242323;22;44788;-83
2023/08/05 05:12:58;;;;;;;;;3.00;3.00;;;;;19.84;83.91;100890.09;6242025;22;46981;-82
2023/08/05 05:15:24;;;;;;;;;6.75;4.25;;;;;19.80;83.37;100891.06;6241684;22;44886;-83
2023/08/05 05:17:50;;;;;;;;;3.50;3.50;;;;;19.74;84.55;100882.16;6269123;22;44728;-83
2023/08/05 05:20:16;;;;;;;;;5.00;5.00;;;;;19.72;84.06;100870.53;6240778;22;44846;-82
2023/08/05 05:22:42;;;;;;;;;4.00;4.00;;;;;19.86;84.16;100874.75;6182961;22;46935;-82
2023/08/05 05:25:14;;;;;;;;;5.00;5.00;;;;;20.12;84.38;100871.44;6294236;22;44753;-83
2023/08/05 05:27:39;;;;;;;;;6.00;6.00;;;;;19.94;83.71;100887.13;6271792;22;44870;-83
2023/08/05 05:30:06;;;;;;;;;5.00;5.00;;;;;19.99;83.94;100881.63;6298654;22;44788;-80
2023/08/05 05:32:31;;;;;;;;;6.00;4.00;;;;;19.99;83.45;100870.81;6251092;22;47037;-81
2023/08/05 05:34:56;;;;;;;;;5.33;5.33;;;;;20.05;82.53;100857.19;6250807;22;45451;-81
2023/08/05 05:37:22;;;;;;;;;4.33;4.33;;;;;20.08;83.49;100854.44;6277961;22;44878;-80
2023/08/05 05:39:47;;;;;;;;;4.67;4.67;;;;;20.17;83.40;100848.78;6250363;22;45353;-80
2023/08/05 05:42:13;;;;;;;;;4.00;4.00;;;;;20.26;83.82;100847.69;6284256;22;45315;-81
2023/08/05 05:44:38;;;;;;;;;4.00;4.00;;;;;20.41;83.18;100851.81;6297119;22;44746;-81
2023/08/05 05:47:07;;;;;;;;;4.00;4.00;;;;;20.61;81.66;100836.97;6272714;22;44728;-81
2023/08/05 05:49:32;;;;;;;;;3.00;3.00;;;;;20.50;81.48;100838.09;6271914;22;44719;-82
2023/08/05 05:51:58;;;;;;;;;4.33;4.33;;;;;20.61;81.48;100837.84;6272937;22;46628;-83
2023/08/05 05:54:23;;;;;;;;;4.67;4.00;;;;;20.66;81.12;100830.50;6258554;22;45260;-80
2023/08/05 05:56:48;;;;;;;;;5.00;3.33;;;;;20.74;80.21;100820.41;6276033;22;45390;-81
2023/08/05 05:59:15;;;;;;;;;5.00;5.00;;;;;20.85;79.68;100830.91;6250174;22;45458;-81
2023/08/05 06:01:40;;;;;;;;;4.00;4.00;;;;;20.93;78.58;100826.19;6250631;22;47414;-82
2023/08/05 06:04:09;;;;;;;;;4.00;3.00;;;;;21.09;78.16;100823.06;6251306;22;45361;-81
2023/08/05 06:06:35;;;;;;;;;4.00;4.00;;;;;21.12;78.28;100818.44;6251088;22;45121;-82
2023/08/05 06:09:02;;;;;;;;;5.00;5.00;;;;;21.26;77.80;100812.63;6279498;22;44773;-81
2023/08/05 06:14:56;;;;;;;;;4.67;4.67;;;;;21.81;76.54;100799.25;6278179;22;45136;-81
2023/08/05 06:17:21;;;;;;;;;3.00;3.00;;;;;21.51;75.99;100798.41;6249268;22;45416;-81
2023/08/05 06:19:46;;;;;;;;;12.33;10.00;;;;;21.63;75.07;100798.00;6248910;22;44897;-81
2023/08/05 06:22:12;;;;;;;;;16.00;14.67;;;;;21.76;74.92;100804.84;6249618;22;47137;-81
2023/08/05 06:24:38;;;;;;;;;43.67;37.67;;;;;21.92;75.12;100798.94;6279241;22;45371;-82
2023/08/05 06:27:04;;;;;;;;;37.00;31.00;;;;;22.07;74.10;100805.69;6272925;22;44716;-84
2023/08/05 06:29:30;;;;;;;;;16.67;16.33;;;;;22.22;74.21;100802.47;6300255;22;44701;-83
2023/08/05 06:31:55;;;;;;;;;11.67;11.33;;;;;22.46;74.08;100800.78;6300149;22;44933;-82
2023/08/05 06:34:22;;;;;;;;;8.50;7.75;;;;;22.71;73.50;100794.50;6272518;22;44755;-82
2023/08/05 06:36:47;;;;;;;;;10.33;9.67;;;;;22.93;70.41;100800.06;6300029;22;44761;-82
2023/08/05 06:39:14;;;;;;;;;7.75;7.75;;;;;23.07;71.63;100788.75;6301322;22;44864;-82
2023/08/05 06:41:39;;;;;;;;;7.50;6.00;;;;;23.22;70.62;100784.56;6300537;22;45021;-81
2023/08/05 06:44:04;;;;;;;;;10.00;9.67;;;;;23.43;70.05;100788.25;6300270;22;44720;-81
2023/08/05 06:46:30;;;;;;;;;7.00;6.00;;;;;23.52;70.41;100774.34;6300120;22;44949;-83
2023/08/05 06:48:55;;;;;;;;;6.33;5.33;;;;;23.51;68.74;100775.28;6297734;22;45360;-83
2023/08/05 06:51:20;;;;;;;;;4.00;4.00;;;;;23.38;68.75;100779.44;6283587;22;45380;-83
2023/08/05 06:53:46;;;;;;;;;3.25;3.00;;;;;23.22;66.96;100771.88;6284411;22;44787;-83
2023/08/05 06:56:11;;;;;;;;;6.00;4.75;;;;;23.09;68.89;100773.28;6283727;22;44827;-84
2023/08/05 06:58:37;;;;;;;;;3.25;3.25;;;;;23.03;68.19;100765.38;6283802;22;44782;-83
2023/08/05 07:01:02;;;;;;;;;2.25;2.25;;;;;22.94;68.65;100769.25;6255399;22;47021;-83
2023/08/05 07:03:29;;;;;;;;;1.00;1.00;;;;;22.82;67.33;100770.59;6256832;22;44788;-84
2023/08/05 07:05:59;;;;;;;;;3.75;3.00;;;;;22.84;68.95;100763.28;6255677;22;45339;-80
2023/08/05 07:08:25;;;;;;;;;5.00;4.00;;;;;23.13;69.27;100762.25;6278832;22;45310;-81
2023/08/05 07:11:00;;;;;;;;;4.50;2.00;;;;;23.43;67.41;100758.41;6278578;22;45370;-81
2023/08/05 07:16:47;;;;;;;;;4.50;3.50;;;;;23.25;66.79;100751.84;6279574;22;45365;-81
2023/08/05 07:19:14;;;;;;;;;2.50;2.50;;;;;23.46;66.04;100764.59;6279661;22;45431;-81
2023/08/05 07:21:42;;;;;;;;;3.25;2.00;;;;;23.47;66.80;100768.19;6280602;22;45083;-81
2023/08/05 07:24:08;;;;;;;;;2.00;2.00;;;;;23.25;65.36;100758.19;6250144;22;45368;-80
2023/08/05 07:26:33;;;;;;;;;2.75;2.00;;;;;23.12;66.20;100756.88;6251979;22;45249;-81
2023/08/05 07:28:59;;;;;;;;;3.00;3.00;;;;;23.13;66.71;100753.25;6250431;22;45655;-82
2023/08/05 07:31:24;;;;;;;;;3.00;3.00;;;;;23.13;67.29;100745.97;6278170;22;45251;-81
2023/08/05 07:33:51;;;;;;;;;3.75;2.00;;;;;23.13;65.60;100742.38;6271506;22;44766;-83
2023/08/05 07:36:17;;;;;;;;;2.75;2.75;;;;;23.13;66.90;100747.81;6300968;22;44684;-82
2023/08/05 07:39:36;;;;;;;;;3.00;3.00;;;;;23.47;66.33;100746.47;6301557;22;45233;-80
2023/08/05 07:42:05;;;;;;;;;2.50;1.50;;;;;23.35;66.00;100756.91;6251804;22;47150;-81
2023/08/05 07:44:31;;;;;;;;;1.75;1.00;;;;;23.46;65.83;100751.03;6278900;22;45357;-81
2023/08/05 07:46:58;;;;;;;;;3.25;2.00;;;;;23.72;65.68;100758.16;6279346;22;45314;-82
2023/08/05 07:49:28;;;;;;;;;3.75;2.25;;;;;23.66;65.23;100747.53;6252568;22;44848;-81
2023/08/05 07:51:53;;;;;;;;;3.00;3.00;;;;;23.61;65.56;100749.53;6277166;22;45169;-81
2023/08/05 07:54:20;;;;;;;;;4.00;2.00;;;;;23.66;65.85;100747.53;6278827;22;45283;-80
2023/08/05 07:56:46;;;;;;;;;1.50;1.50;;;;;23.54;65.22;100737.16;6280785;22;45358;-80
2023/08/05 07:59:12;;;;;;;;;2.75;2.75;;;;;23.54;64.66;100731.72;6251924;22;44792;-80
2023/08/05 08:01:43;;;;;;;;;4.00;2.00;;;;;23.70;63.02;100723.84;6279642;22;45411;-81
2023/08/05 08:04:10;;;;;;;;;1.00;1.00;;;;;23.56;65.02;100727.13;6253223;22;46120;-80
2023/08/05 08:06:35;;;;;;;;;2.75;2.75;;;;;23.52;63.60;100717.34;6251924;22;45307;-80
2023/08/05 08:09:01;;;;;;;;;2.00;2.00;;;;;23.48;64.34;100716.56;6251291;22;44744;-81
2023/08/05 08:11:27;;;;;;;;;4.00;4.00;;;;;23.60;64.60;100715.19;6277325;22;60644;-82
2023/08/05 08:13:55;;;;;;;;;3.00;1.50;;;;;23.48;64.34;100710.25;6279547;22;45623;-80
2023/08/05 08:16:20;;;;;;;;;2.75;2.75;;;;;23.39;65.21;100711.53;6298131;22;44699;-80
2023/08/05 08:27:01;;;;;;;;;3.75;3.75;;;;;23.57;63.76;100704.44;6213103;22;46516;-81
2023/08/05 08:29:26;;;;;;;;;3.00;3.00;;;;;23.26;64.24;100711.09;6227607;22;44813;-82
2023/08/05 08:31:52;;;;;;;;;2.00;2.00;;;;;23.17;64.74;100706.94;6254419;22;45131;-83
2023/08/05 08:34:17;;;;;;;;;2.00;2.00;;;;;23.10;66.40;100709.94;6228522;22;44811;-83
2023/08/05 08:36:42;;;;;;;;;3.00;3.00;;;;;23.07;65.50;100712.78;6228651;22;44779;-84
2023/08/05 08:39:08;;;;;;;;;2.00;2.00;;;;;23.04;65.65;100716.47;6225130;22;45482;-84
2023/08/05 08:41:41;;;;;;;;;1.25;1.25;;;;;23.20;65.76;100708.63;6225200;22;47379;-83
2023/08/05 08:44:08;;;;;;;;;3.50;2.00;;;;;23.07;65.00;100701.94;6227242;22;44796;-84
2023/08/05 08:46:34;;;;;;;;;1.25;1.25;;;;;22.99;65.51;100696.75;6226483;22;44737;-83
2023/08/05 08:49:00;;;;;;;;;2.00;2.00;;;;;23.03;65.28;100692.16;6254127;22;44819;-83
2023/08/05 08:51:26;;;;;;;;;2.00;2.00;;;;;23.13;66.18;100682.69;6254563;22;45209;-82
2023/08/05 08:53:51;;;;;;;;;3.25;3.25;;;;;23.17;64.74;100687.06;6252401;22;44796;-83
2023/08/05 08:56:17;;;;;;;;;2.50;2.50;;;;;23.20;63.43;100678.78;6225909;22;44761;-84
2023/08/05 08:58:42;;;;;;;;;3.00;2.00;;;;;23.23;63.02;100677.78;6227162;22;44872;-83
2023/08/05 09:01:09;;;;;;;;;2.00;2.00;;;;;23.34;63.91;100670.09;6225560;22;47124;-83
2023/08/05 09:03:42;;;;;;;;;1.75;1.75;;;;;23.40;64.89;100668.97;6200801;22;44815;-83
2023/08/05 09:06:08;;;;;;;;;4.50;3.00;;;;;23.43;63.36;100661.59;6260716;22;44854;-81
2023/08/05 09:08:33;;;;;;;;;1.50;1.50;;;;;23.54;64.91;100651.16;6271163;22;44838;-81
2023/08/05 09:11:01;;;;;;;;;5.00;3.75;;;;;23.96;65.41;100649.47;6266325;22;46894;-82
2023/08/05 09:13:26;;;;;;;;;1.25;1.25;;;;;24.09;65.22;100642.53;6244367;22;45036;-82
2023/08/05 09:15:53;;;;;;;;;3.00;2.00;;;;;24.42;63.82;100642.00;6243693;22;44618;-82
2023/08/05 09:28:53;;;;;;;;;2.00;2.00;;;;;24.80;61.30;100625.78;6240406;22;46426;-82
2023/08/05 09:46:51;;;;;;;;;2.75;2.75;;;;;23.78;67.56;100610.41;6165531;22;46610;-82
2023/08/05 09:57:16;;;;;;;;;3.00;3.00;;;;;23.79;68.25;100578.69;6151131;22;46763;-84
2023/08/05 09:59:42;;;;;;;;;2.50;2.50;;;;;23.50;67.54;100568.09;6254008;22;44699;-83
2023/08/05 10:02:12;;;;;;;;;2.75;2.75;;;;;23.67;68.25;100570.13;6226163;22;47147;-84
2023/08/05 10:04:42;;;;;;;;;2.25;2.25;;;;;23.63;68.19;100551.28;6253794;22;44744;-83
2023/08/05 10:07:08;;;;;;;;;3.00;3.00;;;;;23.45;68.25;100558.38;6251025;22;45341;-81
2023/08/05 10:09:37;;;;;;;;;2.50;2.50;;;;;23.37;68.84;100566.88;6195429;22;45466;-81
2023/08/05 10:12:04;;;;;;;;;2.00;2.00;;;;;23.47;68.60;100568.25;6219346;22;47245;-81
2023/08/05 10:14:31;;;;;;;;;3.00;3.00;;;;;23.67;69.13;100559.25;6246222;22;45359;-81
2023/08/05 10:16:56;;;;;;;;;6.00;3.50;;;;;23.87;68.96;100557.50;6246607;22;45466;-81
2023/08/05 10:19:32;;;;;;;;;3.00;3.00;;;;;24.27;68.08;100558.44;6244515;22;45244;-83
2023/08/05 10:22:09;;;;;;;;;3.75;3.00;;;;;24.43;68.73;100559.50;6247255;22;46004;-81
2023/08/05 10:25:02;;;;;;;;;3.00;3.00;;;;;24.63;68.95;100565.88;6220375;22;45442;-81
2023/08/05 10:27:38;;;;;;;;;2.50;2.50;;;;;24.67;67.60;100551.19;6221468;22;44794;-80
2023/08/05 10:30:08;;;;;;;;;3.25;3.25;;;;;24.74;68.28;100547.19;6220113;22;45261;-81
2023/08/05 10:32:35;;;;;;;;;4.00;4.00;;;;;24.60;67.84;100534.25;6245453;22;45471;-81
2023/08/05 10:35:39;;;;;;;;;3.00;3.00;;;;;25.07;66.57;100541.09;6241742;22;45295;-82
2023/08/05 10:38:18;;;;;;;;;2.00;2.00;;;;;25.05;67.27;100526.69;6218379;22;45381;-81
2023/08/05 10:41:01;;;;;;;;;2.75;2.75;;;;;25.13;65.44;100516.28;6246630;22;44793;-81
2023/08/05 10:43:33;;;;;;;;;4.75;3.00;;;;;25.21;65.79;100514.09;6218646;22;47127;-82
2023/08/05 10:46:07;;;;;;;;;3.75;3.75;;;;;25.21;67.09;100500.50;6218112;22;44740;-81
2023/08/05 10:48:41;;;;;;;;;4.00;2.50;;;;;25.30;63.98;100493.69;6218205;22;45428;-82
2023/08/05 10:51:12;;;;;;;;;3.75;3.75;;;;;25.04;65.61;100484.97;6218242;22;44865;-81
2023/08/05 10:53:38;;;;;;;;;3.75;3.75;;;;;24.99;66.04;100492.50;6244320;22;45480;-81
2023/08/05 10:56:11;;;;;;;;;3.25;3.00;;;;;25.12;66.76;100465.53;6200257;22;45902;-83
2023/08/05 10:58:42;;;;;;;;;3.00;3.00;;;;;25.09;66.50;100460.25;6226794;22;45281;-83
2023/08/05 11:01:07;;;;;;;;;5.00;4.25;;;;;25.24;65.01;100450.44;6255797;22;44876;-83
2023/08/05 11:03:43;;;;;;;;;6.75;5.25;;;;;25.47;64.40;100435.63;6227946;22;46906;-83
2023/08/05 11:06:13;;;;;;;;;5.00;5.00;;;;;25.43;64.82;100439.47;6227364;22;44792;-84
2023/08/05 11:08:41;;;;;;;;;5.00;5.00;;;;;25.35;66.13;100434.47;6225929;22;44821;-83
2023/08/05 11:11:07;;;;;;;;;5.75;5.75;;;;;25.38;64.13;100417.06;6227366;22;44766;-83
2023/08/05 11:13:56;;;;;;;;;4.00;4.00;;;;;25.28;64.94;100414.81;6226636;22;46228;-80
2023/08/05 11:16:22;;;;;;;;;3.50;3.50;;;;;25.23;63.07;100402.41;6245304;22;45344;-80
2023/08/05 11:18:59;;;;;;;;;4.00;4.00;;;;;25.06;64.61;100403.25;6246867;22;45349;-80
2023/08/05 11:21:28;;;;;;;;;5.50;4.50;;;;;24.91;64.55;100413.97;6246542;22;44835;-80
2023/08/05 11:23:53;;;;;;;;;4.25;4.25;;;;;24.57;63.78;100409.34;6226296;22;47063;-83
2023/08/05 11:26:23;;;;;;;;;4.00;4.00;;;;;24.63;64.64;100406.31;6253057;22;44669;-84
2023/08/05 11:28:48;;;;;;;;;5.00;5.00;;;;;24.37;64.74;100410.28;6227234;22;44782;-83
2023/08/05 11:31:24;;;;;;;;;4.50;3.50;;;;;24.53;62.96;100402.31;6228321;22;44974;-83
2023/08/05 11:33:51;;;;;;;;;5.00;3.33;;;;;24.25;64.24;100389.13;6253868;22;45070;-84
2023/08/05 11:36:22;;;;;;;;;5.25;4.00;;;;;24.12;64.44;100388.88;6225808;22;44820;-83
2023/08/05 11:38:51;;;;;;;;;2.75;2.75;;;;;24.26;63.49;100385.44;6252686;22;44776;-82
2023/08/05 11:41:16;;;;;;;;;3.75;3.75;;;;;24.01;59.95;100377.59;6225387;22;44783;-82
2023/08/05 11:43:46;;;;;;;;;5.50;5.50;;;;;24.09;60.90;100378.13;6253908;22;45346;-81
2023/08/05 11:46:29;;;;;;;;;4.50;4.50;;;;;24.24;62.53;100369.25;6254629;22;44716;-83
2023/08/05 11:49:11;;;;;;;;;5.50;5.50;;;;;24.22;60.31;100370.25;6255723;22;44720;-83
2023/08/05 11:51:49;;;;;;;;;5.50;5.50;;;;;24.09;60.68;100356.38;6228193;22;44753;-83
2023/08/05 11:54:32;;;;;;;;;6.75;5.75;;;;;23.98;59.77;100351.47;6254457;22;45163;-83
2023/08/05 11:57:55;;;;;;;;;4.00;4.00;;;;;24.12;60.62;100348.97;6227341;22;44794;-84
2023/08/05 12:00:27;;;;;;;;;4.25;3.25;;;;;24.44;61.51;100342.91;6259567;22;44837;-84
2023/08/05 12:02:53;;;;;;;;;4.00;4.00;;;;;24.34;59.10;100335.22;6287268;22;44750;-82
2023/08/05 12:05:18;;;;;;;;;4.50;4.00;;;;;24.56;58.95;100331.44;6287522;22;45465;-82
2023/08/05 12:07:43;;;;;;;;;5.50;2.75;;;;;24.78;59.44;100320.34;6261480;22;44836;-82
2023/08/05 12:10:15;;;;;;;;;3.25;3.25;;;;;25.24;58.87;100311.66;6288519;22;44887;-84
2023/08/05 12:12:45;;;;;;;;;3.00;3.00;;;;;25.33;54.82;100301.16;6261116;22;45254;-83
2023/08/05 12:15:16;;;;;;;;;3.00;3.00;;;;;25.17;53.68;100297.47;6252154;22;47258;-80
2023/08/05 12:17:49;;;;;;;;;4.00;4.00;;;;;25.35;56.19;100306.50;6251355;22;44920;-81
2023/08/05 12:20:23;;;;;;;;;3.75;3.75;;;;;25.41;54.68;100299.81;6250008;22;44751;-81